Time;durP1;ratioP1;P1;durP2;ratioP2;P2;SDS_P1;SDS_P2;PMS_P1;PMS_P2;Temp;Humidity;BMP_temperature;BMP_pressure;BME280_temperature;BME280_humidity;BME280_pressure;Samples;Min_cycle;Max_cycle;Signal;HPM_P1;HPM_P2
2022/09/18 00:02:04;;;;;;;4.47;1.50;;;;;;;;;;5045420;28;20052;-82
2022/09/18 00:04:30;;;;;;;6.20;2.13;;;;;;;;;;5046958;28;20045;-83
2022/09/18 00:06:56;;;;;;;6.93;1.90;;;;;;;;;;5046357;28;20055;-82
2022/09/18 00:09:23;;;;;;;3.60;1.65;;;;;;;;;;5042591;28;20053;-81
2022/09/18 00:11:49;;;;;;;7.15;1.83;;;;;;;;;;5042781;28;20526;-80
2022/09/18 00:14:22;;;;;;;10.82;2.08;;;;;;;;;;5045815;28;20045;-81
2022/09/18 00:16:49;;;;;;;8.55;2.30;;;;;;;;;;5042081;28;20064;-81
2022/09/18 00:19:15;;;;;;;9.02;2.20;;;;;;;;;;5046341;28;20041;-80
2022/09/18 00:21:42;;;;;;;8.85;2.08;;;;;;;;;;5047870;28;20049;-81
2022/09/18 00:24:09;;;;;;;8.82;2.00;;;;;;;;;;5049515;28;20037;-82
2022/09/18 00:26:35;;;;;;;4.40;1.63;;;;;;;;;;5049155;28;20055;-81
2022/09/18 00:29:01;;;;;;;3.55;1.60;;;;;;;;;;5049004;28;20041;-81
2022/09/18 00:31:29;;;;;;;7.32;1.70;;;;;;;;;;5044541;28;20037;-81
2022/09/18 00:33:55;;;;;;;6.35;1.77;;;;;;;;;;5051464;28;20102;-81
2022/09/18 00:36:22;;;;;;;6.57;2.00;;;;;;;;;;5047353;28;20124;-82
2022/09/18 00:38:48;;;;;;;7.55;1.80;;;;;;;;;;5046803;28;20137;-80
2022/09/18 00:41:23;;;;;;;11.02;1.88;;;;;;;;;;5046719;28;20044;-79
2022/09/18 00:43:49;;;;;;;12.30;2.67;;;;;;;;;;5044651;28;20144;-79
2022/09/18 00:46:30;;;;;;;12.10;3.00;;;;;;;;;;5048028;28;20400;-80
2022/09/18 00:49:20;;;;;;;8.30;2.10;;;;;;;;;;5046799;28;20078;-80
2022/09/18 00:51:47;;;;;;;10.40;1.92;;;;;;;;;;5040248;28;20546;-79
2022/09/18 00:54:16;;;;;;;8.68;1.88;;;;;;;;;;5048591;28;20048;-80
2022/09/18 00:56:43;;;;;;;5.93;1.67;;;;;;;;;;5045762;28;20064;-80
2022/09/18 00:59:11;;;;;;;4.53;1.80;;;;;;;;;;5051161;28;20484;-79
2022/09/18 01:01:37;;;;;;;6.40;1.83;;;;;;;;;;5048505;28;20044;-80
2022/09/18 01:04:03;;;;;;;8.45;1.90;;;;;;;;;;5050088;28;20538;-80
2022/09/18 01:06:36;;;;;;;6.85;2.10;;;;;;;;;;5046819;28;20099;-80
2022/09/18 01:09:05;;;;;;;7.93;1.90;;;;;;;;;;5051998;28;20091;-79
2022/09/18 01:11:57;;;;;;;9.00;2.50;;;;;;;;;;5043978;28;20088;-79
2022/09/18 01:14:23;;;;;;;6.80;1.80;;;;;;;;;;5044537;28;20145;-79
2022/09/18 01:16:56;;;;;;;4.13;1.73;;;;;;;;;;5049682;28;20048;-80
2022/09/18 01:19:22;;;;;;;9.02;2.08;;;;;;;;;;5048393;28;20102;-79
2022/09/18 01:21:49;;;;;;;8.70;2.78;;;;;;;;;;5047566;28;20049;-80
2022/09/18 01:24:21;;;;;;;7.07;2.00;;;;;;;;;;5048555;28;20048;-79
2022/09/18 01:27:01;;;;;;;8.05;1.80;;;;;;;;;;5046973;28;20059;-79
2022/09/18 01:29:37;;;;;;;6.07;1.90;;;;;;;;;;5047337;28;20489;-80
2022/09/18 01:32:06;;;;;;;7.82;1.90;;;;;;;;;;5046205;28;20049;-81
2022/09/18 01:34:53;;;;;;;5.47;1.48;;;;;;;;;;5045698;28;20036;-81
2022/09/18 01:37:37;;;;;;;6.20;1.65;;;;;;;;;;5046601;28;20045;-80
2022/09/18 01:40:12;;;;;;;5.35;1.85;;;;;;;;;;5045084;28;20041;-80
2022/09/18 01:42:39;;;;;;;4.57;1.50;;;;;;;;;;5048115;28;20074;-80
2022/09/18 01:45:07;;;;;;;9.27;1.85;;;;;;;;;;5048413;28;20041;-80
2022/09/18 01:47:36;;;;;;;2.15;1.50;;;;;;;;;;5046497;28;20048;-82
2022/09/18 01:50:02;;;;;;;5.10;1.60;;;;;;;;;;5049016;28;20171;-81
2022/09/18 01:52:31;;;;;;;4.78;1.55;;;;;;;;;;5047860;28;20068;-82
2022/09/18 01:54:59;;;;;;;5.22;1.50;;;;;;;;;;5049619;28;20041;-80
2022/09/18 01:57:27;;;;;;;4.63;1.63;;;;;;;;;;5045824;28;20060;-81
2022/09/18 01:59:59;;;;;;;4.40;1.88;;;;;;;;;;5049190;28;20037;-81
2022/09/18 02:02:31;;;;;;;6.20;1.88;;;;;;;;;;5045865;28;20835;-81
2022/09/18 02:04:59;;;;;;;5.63;1.60;;;;;;;;;;5047344;28;20132;-82
2022/09/18 02:07:36;;;;;;;4.65;1.85;;;;;;;;;;5046709;28;20053;-80
2022/09/18 02:10:04;;;;;;;5.55;1.40;;;;;;;;;;5047408;28;20078;-81
2022/09/18 02:12:32;;;;;;;5.88;1.90;;;;;;;;;;5048848;28;20044;-81
2022/09/18 02:15:00;;;;;;;7.00;2.05;;;;;;;;;;5047540;28;20430;-80
2022/09/18 02:17:33;;;;;;;8.88;2.10;;;;;;;;;;5047644;28;20056;-79
2022/09/18 02:20:01;;;;;;;6.47;2.08;;;;;;;;;;5044147;28;20041;-81
2022/09/18 02:22:29;;;;;;;8.70;1.90;;;;;;;;;;5045813;28;20051;-80
2022/09/18 02:24:58;;;;;;;10.40;3.03;;;;;;;;;;5048987;28;20401;-81
2022/09/18 02:27:25;;;;;;;4.28;1.48;;;;;;;;;;5046223;28;20519;-81
2022/09/18 02:29:51;;;;;;;6.78;1.55;;;;;;;;;;5043056;28;20049;-81
2022/09/18 02:32:18;;;;;;;3.20;1.23;;;;;;;;;;5046863;28;20055;-81
2022/09/18 02:34:44;;;;;;;3.63;1.50;;;;;;;;;;5044691;28;20056;-81
2022/09/18 02:37:10;;;;;;;4.97;1.60;;;;;;;;;;5048665;28;20041;-81
2022/09/18 02:39:36;;;;;;;3.97;1.40;;;;;;;;;;5046449;28;20037;-82
2022/09/18 02:42:01;;;;;;;6.45;1.77;;;;;;;;;;5048285;28;20059;-82
2022/09/18 02:44:27;;;;;;;5.63;1.35;;;;;;;;;;5046378;28;20080;-81
2022/09/18 02:47:04;;;;;;;5.28;1.50;;;;;;;;;;5042521;28;20428;-84
2022/09/18 02:49:49;;;;;;;6.40;1.70;;;;;;;;;;5046275;28;20041;-82
2022/09/18 02:52:24;;;;;;;5.18;1.70;;;;;;;;;;5045877;28;20048;-82
2022/09/18 02:54:55;;;;;;;10.10;1.80;;;;;;;;;;5044050;28;20917;-82
2022/09/18 02:57:25;;;;;;;6.75;2.05;;;;;;;;;;5046156;28;20044;-80
2022/09/18 02:59:53;;;;;;;9.20;1.60;;;;;;;;;;5047382;28;20392;-82
2022/09/18 03:02:23;;;;;;;4.22;1.52;;;;;;;;;;5048108;28;20080;-81
2022/09/18 03:04:50;;;;;;;13.23;2.55;;;;;;;;;;5042983;28;20037;-81
2022/09/18 03:07:16;;;;;;;10.80;2.17;;;;;;;;;;5062027;28;20515;-80
2022/09/18 03:09:43;;;;;;;13.50;2.60;;;;;;;;;;5043611;28;20033;-78
2022/09/18 03:12:09;;;;;;;10.75;2.30;;;;;;;;;;5047932;28;20095;-80
2022/09/18 03:14:35;;;;;;;10.70;2.22;;;;;;;;;;5047377;28;20123;-80
2022/09/18 03:17:01;;;;;;;9.40;2.30;;;;;;;;;;5046452;28;20508;-81
2022/09/18 03:19:27;;;;;;;7.30;1.85;;;;;;;;;;5046456;28;20068;-80
2022/09/18 03:21:53;;;;;;;6.47;1.85;;;;;;;;;;5047252;28;20396;-81
2022/09/18 03:24:19;;;;;;;3.92;1.75;;;;;;;;;;5046209;28;20060;-81
2022/09/18 03:26:46;;;;;;;4.93;1.55;;;;;;;;;;5047471;28;20584;-80
2022/09/18 03:29:13;;;;;;;10.43;2.22;;;;;;;;;;5048269;28;20044;-81
2022/09/18 03:31:39;;;;;;;5.05;1.63;;;;;;;;;;5042142;28;20064;-81
2022/09/18 03:34:05;;;;;;;3.83;1.48;;;;;;;;;;5045895;28;20048;-82
2022/09/18 03:36:31;;;;;;;3.20;1.58;;;;;;;;;;5046628;28;20099;-81
2022/09/18 03:38:58;;;;;;;5.28;1.58;;;;;;;;;;5046506;28;20275;-81
2022/09/18 03:41:24;;;;;;;4.03;1.65;;;;;;;;;;5045710;28;20484;-81
2022/09/18 03:43:50;;;;;;;3.20;1.55;;;;;;;;;;5047892;28;20033;-81
2022/09/18 03:46:21;;;;;;;4.60;1.52;;;;;;;;;;5045163;28;20057;-82
2022/09/18 03:48:47;;;;;;;8.70;1.90;;;;;;;;;;5046995;28;20106;-81
2022/09/18 03:51:13;;;;;;;2.45;1.42;;;;;;;;;;5047456;28;20076;-80
2022/09/18 03:53:39;;;;;;;2.80;1.67;;;;;;;;;;5048111;28;20072;-81
2022/09/18 03:56:05;;;;;;;4.03;1.50;;;;;;;;;;5048532;28;20116;-81
2022/09/18 03:58:31;;;;;;;3.95;1.70;;;;;;;;;;5048423;28;20047;-84
2022/09/18 04:00:57;;;;;;;18.02;3.60;;;;;;;;;;5048688;28;20037;-79
2022/09/18 04:03:23;;;;;;;14.15;3.22;;;;;;;;;;5050420;28;20485;-80
2022/09/18 04:05:50;;;;;;;22.80;4.25;;;;;;;;;;5051551;28;20099;-80
2022/09/18 04:08:16;;;;;;;14.30;2.90;;;;;;;;;;5047505;28;20087;-80
2022/09/18 04:10:42;;;;;;;14.10;3.10;;;;;;;;;;5049717;28;20534;-79
2022/09/18 04:13:08;;;;;;;10.60;2.60;;;;;;;;;;5051821;28;20048;-80
2022/09/18 04:15:34;;;;;;;11.10;2.35;;;;;;;;;;5049001;28;20107;-80
2022/09/18 04:18:00;;;;;;;12.38;2.67;;;;;;;;;;5046928;28;20099;-81
2022/09/18 04:20:27;;;;;;;17.45;3.63;;;;;;;;;;5050125;28;20045;-80
2022/09/18 04:22:53;;;;;;;15.18;2.55;;;;;;;;;;5048652;28;20060;-81
2022/09/18 04:25:19;;;;;;;16.85;2.65;;;;;;;;;;5048574;28;20098;-81
2022/09/18 04:27:45;;;;;;;12.85;2.22;;;;;;;;;;5050251;28;20040;-80
2022/09/18 04:30:12;;;;;;;6.72;2.28;;;;;;;;;;5043273;28;20045;-81
2022/09/18 04:32:38;;;;;;;7.00;1.83;;;;;;;;;;5052148;28;20064;-81
2022/09/18 04:35:05;;;;;;;7.30;1.60;;;;;;;;;;5048133;28;20493;-81
2022/09/18 04:37:31;;;;;;;6.75;1.70;;;;;;;;;;5045125;28;20381;-81
2022/09/18 04:39:57;;;;;;;9.15;2.38;;;;;;;;;;5049958;28;20437;-80
2022/09/18 04:42:23;;;;;;;5.72;1.98;;;;;;;;;;5050939;28;20091;-81
2022/09/18 04:44:49;;;;;;;4.57;1.60;;;;;;;;;;5049252;28;20041;-81
2022/09/18 04:47:15;;;;;;;4.97;1.88;;;;;;;;;;5045329;28;20068;-81
2022/09/18 04:49:41;;;;;;;4.22;1.67;;;;;;;;;;5048841;28;20068;-82
2022/09/18 04:52:07;;;;;;;4.38;1.38;;;;;;;;;;5049655;28;20085;-81
2022/09/18 04:54:33;;;;;;;5.15;1.65;;;;;;;;;;5048380;28;20045;-82
2022/09/18 04:56:59;;;;;;;7.78;2.00;;;;;;;;;;5048897;28;20128;-82
2022/09/18 04:59:25;;;;;;;6.40;2.35;;;;;;;;;;5044446;28;21358;-82
2022/09/18 05:01:51;;;;;;;8.35;2.10;;;;;;;;;;5048371;28;20045;-81
2022/09/18 05:04:17;;;;;;;6.30;1.70;;;;;;;;;;5047003;28;20407;-82
2022/09/18 05:06:43;;;;;;;3.95;1.55;;;;;;;;;;5047613;28;20047;-81
2022/09/18 05:09:09;;;;;;;5.30;1.85;;;;;;;;;;5049139;28;20036;-82
2022/09/18 05:11:35;;;;;;;9.88;2.15;;;;;;;;;;5042480;28;20044;-82
2022/09/18 05:14:01;;;;;;;3.42;1.60;;;;;;;;;;5050240;28;20048;-82
2022/09/18 05:16:27;;;;;;;5.55;1.80;;;;;;;;;;5046008;28;20041;-82
2022/09/18 05:18:53;;;;;;;4.55;1.55;;;;;;;;;;5049175;28;20045;-82
2022/09/18 05:21:22;;;;;;;3.22;1.38;;;;;;;;;;5049698;28;20057;-81
2022/09/18 05:23:48;;;;;;;4.82;1.50;;;;;;;;;;5043362;28;20118;-82
2022/09/18 05:26:14;;;;;;;3.88;1.55;;;;;;;;;;5048904;28;20186;-82
2022/09/18 05:28:41;;;;;;;2.35;1.42;;;;;;;;;;5050905;28;20392;-82
2022/09/18 05:31:07;;;;;;;3.10;1.50;;;;;;;;;;5045910;28;20122;-82
2022/09/18 05:33:33;;;;;;;3.95;1.60;;;;;;;;;;5047634;28;20041;-81
2022/09/18 05:35:59;;;;;;;5.05;2.28;;;;;;;;;;5046626;28;20049;-81
2022/09/18 05:38:25;;;;;;;5.40;1.50;;;;;;;;;;5046557;28;20132;-80
2022/09/18 05:40:51;;;;;;;5.05;1.63;;;;;;;;;;5049948;28;20032;-81
2022/09/18 05:43:17;;;;;;;2.95;1.42;;;;;;;;;;5044460;28;20037;-81
2022/09/18 05:45:44;;;;;;;7.57;1.63;;;;;;;;;;5047476;28;20041;-81
2022/09/18 05:48:13;;;;;;;4.10;1.52;;;;;;;;;;5047864;28;20041;-82
2022/09/18 05:50:41;;;;;;;5.53;1.92;;;;;;;;;;5047574;28;20081;-81
2022/09/18 05:53:10;;;;;;;7.13;2.10;;;;;;;;;;5046969;28;20127;-82
2022/09/18 05:55:36;;;;;;;5.03;1.60;;;;;;;;;;5044945;28;20044;-82
2022/09/18 05:58:03;;;;;;;4.22;1.60;;;;;;;;;;5046892;28;20752;-83
2022/09/18 06:00:29;;;;;;;3.78;1.50;;;;;;;;;;5047574;28;20149;-82
2022/09/18 06:02:56;;;;;;;4.15;1.40;;;;;;;;;;5047139;28;20044;-80
2022/09/18 06:05:23;;;;;;;6.82;1.70;;;;;;;;;;5048778;28;20049;-82
2022/09/18 06:07:50;;;;;;;6.10;1.88;;;;;;;;;;5045090;28;20037;-82
2022/09/18 06:10:17;;;;;;;2.97;1.67;;;;;;;;;;5047523;28;20049;-81
2022/09/18 06:12:43;;;;;;;7.30;1.70;;;;;;;;;;5046640;28;20445;-81
2022/09/18 06:15:09;;;;;;;6.68;1.95;;;;;;;;;;5046843;28;20041;-80
2022/09/18 06:17:35;;;;;;;8.10;2.42;;;;;;;;;;5041345;28;20041;-80
2022/09/18 06:20:02;;;;;;;13.73;2.67;;;;;;;;;;5043906;28;20513;-79
2022/09/18 06:22:28;;;;;;;9.63;1.70;;;;;;;;;;5045859;28;20452;-80
2022/09/18 06:24:54;;;;;;;4.20;1.73;;;;;;;;;;5048987;28;20469;-79
2022/09/18 06:27:20;;;;;;;6.10;2.13;;;;;;;;;;5044044;28;20098;-79
2022/09/18 06:29:46;;;;;;;3.47;1.63;;;;;;;;;;5047988;28;20068;-80
2022/09/18 06:32:12;;;;;;;8.40;1.88;;;;;;;;;;5044932;28;20039;-79
2022/09/18 06:34:38;;;;;;;10.50;1.90;;;;;;;;;;5042663;28;20048;-80
2022/09/18 06:37:04;;;;;;;5.93;1.50;;;;;;;;;;5048389;28;20044;-79
2022/09/18 06:39:30;;;;;;;6.95;1.67;;;;;;;;;;5049218;28;20048;-79
2022/09/18 06:41:58;;;;;;;8.90;1.95;;;;;;;;;;5047713;28;20289;-79
2022/09/18 06:44:24;;;;;;;17.17;2.50;;;;;;;;;;5045051;28;20072;-79
2022/09/18 06:46:50;;;;;;;11.10;2.65;;;;;;;;;;5047919;28;20343;-80
2022/09/18 06:49:16;;;;;;;11.10;2.45;;;;;;;;;;5046000;28;20083;-80
2022/09/18 06:51:44;;;;;;;7.50;1.70;;;;;;;;;;5048103;28;20076;-78
2022/09/18 06:54:12;;;;;;;11.95;2.58;;;;;;;;;;5045387;28;20064;-80
2022/09/18 06:56:38;;;;;;;11.80;2.65;;;;;;;;;;5047691;28;20052;-80
2022/09/18 06:59:04;;;;;;;12.82;2.65;;;;;;;;;;5047883;28;20041;-78
2022/09/18 07:01:30;;;;;;;17.30;2.70;;;;;;;;;;5047482;28;20033;-79
2022/09/18 07:03:56;;;;;;;13.55;2.60;;;;;;;;;;5046528;28;20032;-80
2022/09/18 07:06:22;;;;;;;10.77;2.00;;;;;;;;;;5047757;28;20499;-79
2022/09/18 07:08:48;;;;;;;9.93;2.40;;;;;;;;;;5047330;28;20090;-79
2022/09/18 07:11:14;;;;;;;13.35;2.30;;;;;;;;;;5047935;28;20501;-78
2022/09/18 07:13:40;;;;;;;9.88;2.40;;;;;;;;;;5046524;28;20048;-78
2022/09/18 07:16:06;;;;;;;11.18;2.25;;;;;;;;;;5046675;28;20052;-78
2022/09/18 07:18:32;;;;;;;7.80;2.00;;;;;;;;;;5047942;28;20048;-79
2022/09/18 07:20:59;;;;;;;10.43;2.50;;;;;;;;;;5044237;28;20048;-79
2022/09/18 07:23:28;;;;;;;17.13;2.80;;;;;;;;;;5044228;28;20041;-79
2022/09/18 07:25:54;;;;;;;11.18;3.05;;;;;;;;;;5047122;28;20056;-79
2022/09/18 07:28:20;;;;;;;11.90;2.22;;;;;;;;;;5046182;28;20067;-79
2022/09/18 07:30:46;;;;;;;9.68;2.42;;;;;;;;;;5046946;28;20484;-79
2022/09/18 07:33:12;;;;;;;7.43;2.17;;;;;;;;;;5051844;28;20134;-79
2022/09/18 07:35:38;;;;;;;10.98;2.20;;;;;;;;;;5049193;28;20058;-79
2022/09/18 07:38:06;;;;;;;8.63;2.15;;;;;;;;;;5049575;28;20067;-79
2022/09/18 07:40:32;;;;;;;6.05;2.00;;;;;;;;;;5049454;28;20041;-79
2022/09/18 07:42:59;;;;;;;6.05;1.98;;;;;;;;;;5049564;28;20052;-80
2022/09/18 07:45:25;;;;;;;7.38;1.70;;;;;;;;;;5048665;28;20175;-80
2022/09/18 07:47:51;;;;;;;5.63;1.77;;;;;;;;;;5050972;28;20124;-78
2022/09/18 07:50:17;;;;;;;7.47;1.52;;;;;;;;;;5052193;28;20044;-79
2022/09/18 07:52:50;;;;;;;5.30;1.50;;;;;;;;;;5048998;28;20084;-80
2022/09/18 07:55:19;;;;;;;3.75;1.50;;;;;;;;;;5048310;28;20203;-79
2022/09/18 07:57:45;;;;;;;9.55;2.30;;;;;;;;;;5050284;28;20056;-79
2022/09/18 08:00:11;;;;;;;6.95;2.03;;;;;;;;;;5043861;28;20045;-80
2022/09/18 08:02:37;;;;;;;8.57;1.85;;;;;;;;;;5049256;28;20523;-78
2022/09/18 08:05:04;;;;;;;8.90;1.55;;;;;;;;;;5051842;28;20041;-79
2022/09/18 08:07:30;;;;;;;10.95;1.60;;;;;;;;;;5050559;28;20045;-78
2022/09/18 08:09:56;;;;;;;8.57;1.75;;;;;;;;;;5047286;28;20385;-79
2022/09/18 08:12:22;;;;;;;8.43;2.00;;;;;;;;;;5049371;28;20045;-79
2022/09/18 08:14:48;;;;;;;5.25;1.75;;;;;;;;;;5047743;28;20044;-79
2022/09/18 08:17:14;;;;;;;5.25;1.70;;;;;;;;;;5047483;28;20048;-79
2022/09/18 08:19:40;;;;;;;4.30;1.70;;;;;;;;;;5047716;28;20045;-79
2022/09/18 08:22:06;;;;;;;6.60;1.95;;;;;;;;;;5051581;28;20509;-80
2022/09/18 08:24:32;;;;;;;8.23;1.77;;;;;;;;;;5044344;28;20091;-80
2022/09/18 08:27:02;;;;;;;7.78;1.90;;;;;;;;;;5050259;28;20048;-78
2022/09/18 08:29:29;;;;;;;6.90;2.55;;;;;;;;;;5050106;28;20051;-78
2022/09/18 08:31:55;;;;;;;10.15;2.40;;;;;;;;;;5048678;28;20037;-80
2022/09/18 08:34:21;;;;;;;5.63;1.63;;;;;;;;;;5048880;28;20370;-78
2022/09/18 08:36:47;;;;;;;4.20;1.65;;;;;;;;;;5050605;28;20412;-78
2022/09/18 08:39:13;;;;;;;6.10;1.83;;;;;;;;;;5047970;28;20036;-78
2022/09/18 08:41:54;;;;;;;4.60;1.80;;;;;;;;;;5048946;28;20037;-78
2022/09/18 08:44:44;;;;;;;3.45;1.58;;;;;;;;;;5048742;28;20036;-79
2022/09/18 08:47:13;;;;;;;3.70;1.63;;;;;;;;;;5039994;28;20506;-79
2022/09/18 08:49:45;;;;;;;3.40;1.58;;;;;;;;;;5046689;28;20051;-79
2022/09/18 08:52:23;;;;;;;4.72;1.60;;;;;;;;;;5047481;28;20414;-80
2022/09/18 08:55:03;;;;;;;4.55;1.70;;;;;;;;;;5050038;28;20136;-79
2022/09/18 08:57:35;;;;;;;5.15;1.67;;;;;;;;;;5048669;28;20059;-80
2022/09/18 09:00:02;;;;;;;5.57;1.95;;;;;;;;;;5050048;28;20485;-80
2022/09/18 09:02:37;;;;;;;8.48;2.28;;;;;;;;;;5050147;28;20048;-81
2022/09/18 09:05:07;;;;;;;5.57;1.70;;;;;;;;;;5048648;28;20045;-81
2022/09/18 09:07:33;;;;;;;5.97;2.10;;;;;;;;;;5049445;28;20404;-83
2022/09/18 09:10:02;;;;;;;7.28;2.42;;;;;;;;;;5048249;28;20037;-80
2022/09/18 09:12:40;;;;;;;4.25;1.98;;;;;;;;;;5049758;28;20053;-82
2022/09/18 09:15:32;;;;;;;8.70;2.13;;;;;;;;;;5049045;28;20045;-81
2022/09/18 09:18:15;;;;;;;14.07;2.42;;;;;;;;;;5042446;28;20056;-80
2022/09/18 09:20:50;;;;;;;4.97;1.80;;;;;;;;;;5048979;28;20057;-79
2022/09/18 09:23:32;;;;;;;3.92;2.20;;;;;;;;;;5048807;28;20041;-80
2022/09/18 09:26:05;;;;;;;6.28;1.77;;;;;;;;;;5050081;28;20056;-81
2022/09/18 09:28:37;;;;;;;3.38;1.75;;;;;;;;;;5049390;28;20041;-81
2022/09/18 09:31:06;;;;;;;3.65;1.77;;;;;;;;;;5048649;28;20492;-81
2022/09/18 09:33:41;;;;;;;7.15;1.98;;;;;;;;;;5047821;28;20547;-81
2022/09/18 09:36:13;;;;;;;6.15;2.13;;;;;;;;;;5044692;28;20067;-81
2022/09/18 09:38:58;;;;;;;5.40;2.10;;;;;;;;;;5047951;28;20416;-81
2022/09/18 09:41:24;;;;;;;5.32;1.80;;;;;;;;;;5045011;28;20150;-81
2022/09/18 09:44:14;;;;;;;7.70;1.80;;;;;;;;;;5044947;28;20049;-81
2022/09/18 09:46:43;;;;;;;7.70;1.95;;;;;;;;;;5048010;28;20476;-80
2022/09/18 09:49:28;;;;;;;7.10;2.42;;;;;;;;;;5048662;28;20393;-80
2022/09/18 09:52:01;;;;;;;5.35;1.92;;;;;;;;;;5049125;28;20084;-80
2022/09/18 09:54:27;;;;;;;6.82;2.33;;;;;;;;;;5045235;28;20076;-82
2022/09/18 09:57:08;;;;;;;13.10;2.78;;;;;;;;;;5048165;28;20067;-80
2022/09/18 09:59:34;;;;;;;6.60;2.17;;;;;;;;;;5044284;28;20127;-80
2022/09/18 10:02:19;;;;;;;7.32;2.65;;;;;;;;;;5046946;28;20123;-80
2022/09/18 10:04:53;;;;;;;8.57;2.40;;;;;;;;;;5049102;28;20049;-80
2022/09/18 10:07:24;;;;;;;8.10;2.38;;;;;;;;;;5045127;28;20125;-81
2022/09/18 10:10:11;;;;;;;8.32;2.30;;;;;;;;;;5046844;28;20051;-82
2022/09/18 10:12:45;;;;;;;7.63;2.15;;;;;;;;;;5036915;28;20064;-82
2022/09/18 10:15:16;;;;;;;8.10;2.63;;;;;;;;;;5046611;28;20733;-82
2022/09/18 10:17:42;;;;;;;5.82;2.30;;;;;;;;;;5049575;28;20045;-81
2022/09/18 10:20:14;;;;;;;5.55;2.38;;;;;;;;;;5046701;28;20041;-83
2022/09/18 10:22:40;;;;;;;7.45;2.10;;;;;;;;;;5046024;28;20099;-81
2022/09/18 10:25:25;;;;;;;6.88;2.00;;;;;;;;;;5046656;28;20084;-82
2022/09/18 10:27:51;;;;;;;6.70;2.08;;;;;;;;;;5047028;28;20125;-81
2022/09/18 10:30:17;;;;;;;6.00;1.85;;;;;;;;;;5044898;28;20144;-83
2022/09/18 10:32:43;;;;;;;5.75;2.10;;;;;;;;;;5045039;28;20128;-81
2022/09/18 10:35:19;;;;;;;7.72;1.83;;;;;;;;;;5048156;28;20388;-83
2022/09/18 10:37:45;;;;;;;6.88;1.70;;;;;;;;;;5049561;28;20106;-83
2022/09/18 10:40:27;;;;;;;6.00;1.90;;;;;;;;;;5047947;28;20041;-81
2022/09/18 10:42:54;;;;;;;5.63;1.73;;;;;;;;;;5043567;28;20484;-82
2022/09/18 10:45:24;;;;;;;5.15;1.75;;;;;;;;;;5046789;28;20037;-81
2022/09/18 10:48:01;;;;;;;5.88;1.75;;;;;;;;;;5048437;28;20048;-81
2022/09/18 10:50:27;;;;;;;9.48;1.63;;;;;;;;;;5046023;28;20408;-82
2022/09/18 10:52:53;;;;;;;5.43;2.10;;;;;;;;;;5041409;28;20059;-82
2022/09/18 10:55:24;;;;;;;9.38;2.30;;;;;;;;;;5048217;28;20120;-81
2022/09/18 10:57:50;;;;;;;6.78;2.72;;;;;;;;;;5048157;28;20052;-82
2022/09/18 11:00:19;;;;;;;6.22;2.10;;;;;;;;;;5042200;28;20500;-83
2022/09/18 11:02:45;;;;;;;6.03;2.05;;;;;;;;;;5045566;28;20460;-81
2022/09/18 11:05:18;;;;;;;9.88;2.35;;;;;;;;;;5047047;28;20125;-82
2022/09/18 11:07:52;;;;;;;10.98;5.10;;;;;;;;;;5046092;28;20041;-83
2022/09/18 11:10:19;;;;;;;6.97;2.20;;;;;;;;;;5045693;28;20040;-83
2022/09/18 11:12:53;;;;;;;6.45;2.05;;;;;;;;;;5048414;28;20044;-82
2022/09/18 11:15:20;;;;;;;7.93;1.90;;;;;;;;;;5047337;28;20064;-83
2022/09/18 11:17:51;;;;;;;6.72;2.08;;;;;;;;;;5043623;28;20048;-81
2022/09/18 11:20:27;;;;;;;7.93;2.03;;;;;;;;;;5043487;28;20060;-81
2022/09/18 11:22:53;;;;;;;4.47;2.13;;;;;;;;;;5044100;28;20099;-83
2022/09/18 11:25:19;;;;;;;8.23;2.10;;;;;;;;;;5036655;28;20053;-82
2022/09/18 11:27:47;;;;;;;4.93;1.98;;;;;;;;;;4977117;28;20798;-82
2022/09/18 11:30:15;;;;;;;3.03;1.70;;;;;;;;;;4982540;28;20859;-82
2022/09/18 11:32:44;;;;;;;6.50;2.25;;;;;;;;;;5017911;28;20099;-82
2022/09/18 11:35:14;;;;;;;5.63;2.10;;;;;;;;;;5043516;28;20077;-82
2022/09/18 11:37:47;;;;;;;8.27;2.20;;;;;;;;;;5045607;28;20041;-82
2022/09/18 11:40:16;;;;;;;11.65;2.15;;;;;;;;;;5046766;28;20037;-81
2022/09/18 11:42:43;;;;;;;10.00;2.33;;;;;;;;;;5044869;28;20067;-81
2022/09/18 11:45:15;;;;;;;8.98;2.40;;;;;;;;;;5044714;28;20488;-79
2022/09/18 11:47:44;;;;;;;12.88;2.50;;;;;;;;;;5046112;28;20087;-80
2022/09/18 11:50:16;;;;;;;9.50;2.97;;;;;;;;;;5045783;28;20072;-80
2022/09/18 11:53:02;;;;;;;12.35;2.92;;;;;;;;;;5047091;28;20053;-81
2022/09/18 11:55:34;;;;;;;11.98;2.95;;;;;;;;;;5043714;28;20132;-80
2022/09/18 11:58:06;;;;;;;12.20;2.90;;;;;;;;;;5046738;28;20048;-80
2022/09/18 12:00:35;;;;;;;14.60;2.97;;;;;;;;;;5044445;28;20047;-80
2022/09/18 12:03:17;;;;;;;11.32;2.67;;;;;;;;;;5046157;28;20045;-80
2022/09/18 12:05:50;;;;;;;8.75;2.10;;;;;;;;;;5045818;28;20059;-80
2022/09/18 12:08:19;;;;;;;4.47;1.43;;;;;;;;;;5046791;28;20091;-80
2022/09/18 12:10:52;;;;;;;5.50;2.00;;;;;;;;;;5047087;28;20102;-80
2022/09/18 12:13:18;;;;;;;5.65;1.80;;;;;;;;;;5045816;28;20045;-80
2022/09/18 12:15:50;;;;;;;6.47;2.13;;;;;;;;;;5043668;28;20091;-80
2022/09/18 12:18:20;;;;;;;11.52;2.45;;;;;;;;;;5050089;28;20049;-80
2022/09/18 12:20:52;;;;;;;4.88;2.22;;;;;;;;;;5045436;28;20095;-81
2022/09/18 12:23:22;;;;;;;6.28;2.20;;;;;;;;;;5050083;28;20436;-81
2022/09/18 12:25:48;;;;;;;9.57;2.63;;;;;;;;;;5046898;28;20503;-81
2022/09/18 12:28:22;;;;;;;12.23;2.70;;;;;;;;;;5050445;28;20045;-80
2022/09/18 12:31:08;;;;;;;11.00;2.72;;;;;;;;;;5046032;28;20037;-81
2022/09/18 12:33:34;;;;;;;9.60;1.98;;;;;;;;;;5050503;28;20346;-81
2022/09/18 12:36:25;;;;;;;6.18;2.42;;;;;;;;;;5050608;28;20037;-81
2022/09/18 12:38:54;;;;;;;9.70;2.00;;;;;;;;;;5048681;28;20049;-80
2022/09/18 12:41:24;;;;;;;6.13;2.30;;;;;;;;;;5047892;28;20041;-80
2022/09/18 12:44:08;;;;;;;9.38;2.55;;;;;;;;;;5048984;28;20413;-81
2022/09/18 12:46:43;;;;;;;7.47;2.00;;;;;;;;;;5049030;28;20049;-83
2022/09/18 12:49:09;;;;;;;7.10;1.92;;;;;;;;;;5045923;28;20049;-81
2022/09/18 12:51:46;;;;;;;7.32;1.90;;;;;;;;;;5047949;28;20040;-81
2022/09/18 12:54:21;;;;;;;8.20;1.90;;;;;;;;;;5049543;28;20053;-82
2022/09/18 12:57:00;;;;;;;5.90;1.83;;;;;;;;;;5041371;28;20049;-81
2022/09/18 12:59:49;;;;;;;5.53;1.58;;;;;;;;;;5049666;28;20044;-81
2022/09/18 13:02:22;;;;;;;8.88;2.05;;;;;;;;;;5044053;28;20053;-81
2022/09/18 13:04:51;;;;;;;5.70;1.95;;;;;;;;;;5045257;28;20056;-81
2022/09/18 13:07:20;;;;;;;4.30;2.10;;;;;;;;;;5047557;28;20507;-83
2022/09/18 13:09:52;;;;;;;7.03;2.17;;;;;;;;;;5043827;28;20053;-82
2022/09/18 13:12:21;;;;;;;7.07;1.90;;;;;;;;;;5050386;28;20495;-81
2022/09/18 13:14:59;;;;;;;8.85;2.53;;;;;;;;;;5050582;28;20552;-83
2022/09/18 13:17:28;;;;;;;6.18;1.90;;;;;;;;;;5034081;28;20052;-81
2022/09/18 13:19:58;;;;;;;6.75;1.92;;;;;;;;;;5045965;28;20037;-80
2022/09/18 13:22:28;;;;;;;9.63;2.90;;;;;;;;;;5048460;28;20362;-81
2022/09/18 13:24:54;;;;;;;7.43;2.53;;;;;;;;;;5044646;28;20388;-83
2022/09/18 13:27:22;;;;;;;10.02;2.45;;;;;;;;;;5048989;28;20129;-82
2022/09/18 13:29:55;;;;;;;5.38;1.95;;;;;;;;;;5047913;28;20123;-85
2022/09/18 13:32:36;;;;;;;6.40;2.40;;;;;;;;;;5050568;28;20507;-90
2022/09/18 13:35:03;;;;;;;8.27;2.65;;;;;;;;;;5045202;28;20049;-88
2022/09/18 13:37:30;;;;;;;7.93;1.90;;;;;;;;;;5046218;28;20048;-86
2022/09/18 13:39:58;;;;;;;8.52;2.20;;;;;;;;;;5048675;28;20044;-88
2022/09/18 13:42:32;;;;;;;5.90;1.88;;;;;;;;;;5052416;28;20051;-91
2022/09/18 13:45:19;;;;;;;9.20;2.25;;;;;;;;;;5050430;28;20044;-92
2022/09/18 13:48:03;;;;;;;7.78;2.10;;;;;;;;;;5049807;28;20370;-82
2022/09/18 13:50:31;;;;;;;5.93;2.25;;;;;;;;;;5031858;28;20050;-84
2022/09/18 13:52:58;;;;;;;9.60;2.17;;;;;;;;;;5039449;28;20061;-84
2022/09/18 13:55:26;;;;;;;5.38;2.25;;;;;;;;;;5051936;28;20049;-83
2022/09/18 13:57:52;;;;;;;8.43;2.08;;;;;;;;;;5044165;28;20045;-84
2022/09/18 14:00:21;;;;;;;8.45;1.90;;;;;;;;;;5043071;28;20042;-82
2022/09/18 14:02:48;;;;;;;8.75;1.90;;;;;;;;;;5048782;28;20081;-81
2022/09/18 14:05:33;;;;;;;8.60;2.00;;;;;;;;;;5048146;28;20122;-83
2022/09/18 14:08:18;;;;;;;6.55;2.47;;;;;;;;;;5038760;28;20041;-81
2022/09/18 14:10:47;;;;;;;4.60;1.88;;;;;;;;;;5043814;28;20041;-82
2022/09/18 14:13:16;;;;;;;8.30;2.25;;;;;;;;;;5046051;28;20045;-80
2022/09/18 14:15:57;;;;;;;10.48;2.70;;;;;;;;;;5043168;28;20041;-82
2022/09/18 14:18:25;;;;;;;5.55;2.60;;;;;;;;;;5038838;28;20045;-83
2022/09/18 14:20:53;;;;;;;6.15;2.20;;;;;;;;;;5049193;28;20048;-83
2022/09/18 14:23:35;;;;;;;7.45;2.47;;;;;;;;;;5044696;28;20081;-81
2022/09/18 14:26:02;;;;;;;6.43;2.30;;;;;;;;;;5049555;28;20132;-85
2022/09/18 14:28:29;;;;;;;6.47;2.42;;;;;;;;;;5048108;28;20095;-81
2022/09/18 14:31:14;;;;;;;8.40;2.45;;;;;;;;;;5049311;28;20044;-82
2022/09/18 14:33:42;;;;;;;9.25;2.38;;;;;;;;;;5047689;28;20059;-82
2022/09/18 14:36:10;;;;;;;7.90;2.10;;;;;;;;;;5039980;28;20539;-83
2022/09/18 14:38:40;;;;;;;9.20;2.47;;;;;;;;;;5036302;28;20051;-80
2022/09/18 14:41:23;;;;;;;7.90;2.10;;;;;;;;;;5045822;28;20041;-81
2022/09/18 14:44:00;;;;;;;9.50;2.90;;;;;;;;;;5042551;28;20151;-83
2022/09/18 14:46:26;;;;;;;7.88;2.40;;;;;;;;;;5048167;28;20452;-82
2022/09/18 14:48:52;;;;;;;10.77;2.72;;;;;;;;;;5045063;28;20049;-82
2022/09/18 14:51:23;;;;;;;5.80;2.20;;;;;;;;;;5050839;28;20102;-83
2022/09/18 14:53:50;;;;;;;9.82;2.67;;;;;;;;;;5047886;28;20405;-80
2022/09/18 14:56:23;;;;;;;6.90;2.75;;;;;;;;;;5041451;28;20051;-82